Susquehanna — WDD9976 — position and weather

sailwx.info

Track history (hours):
 
Tides and Currents Weather Stations Pressure Air Temp Water Temp Dewpoint Dewpoint Depression Visibility Wind Speed Wind Dir Waves Ship Positions

Susquehanna

Owner: Vane Line Bunkering, Inc., Baltimore, MD. More information available from US FCC via Universal Licensing System and Coast Guard Vessel Documentation Center.

Last reported at 2016-Apr-30 06:10 UTC. Time now 2016-May-01 15:38 UTC.
Position N 27°03' W 079°59'.

Length 28 m; draft 4.2 m.

Type: Tug. MMSI: 367318750.

Date/timePositionNaut miles runAvg speedWind from/ knotsBaromVisibWave heightAir tempDewpointWater temp
2016-Apr-30 06:10N 27°03' W 079°59'711.4
2016-Apr-30 05:33N 26°56' W 079°59'21 9.7
2016-Apr-30 03:23N 26°35' W 079°59'7 8.7
2016-Apr-30 02:33N 26°28' W 079°60'9 8.6
2016-Apr-30 01:33N 26°20' W 080°01'9 8.9
2016-Apr-30 00:33N 26°11' W 080°01'8 8.4
2016-Apr-29 23:33N 26°02' W 080°02'8 8.2
2016-Apr-29 22:33N 25°54' W 080°02'9 9.1
2016-Apr-29 21:33N 25°45' W 080°03'173 3.9
2016-Apr-28 01:13N 27°06' W 082°53'6 7.9
2016-Apr-28 00:24N 27°12' W 082°53'  
2016-Apr-25 11:20N 29°45' W 090°01'4 5.7
2016-Apr-25 10:33N 29°49' W 090°00'0 0.0
2016-Apr-25 09:33N 29°49' W 090°00'0 0.0
2016-Apr-25 08:33N 29°49' W 090°00'0 0.0
2016-Apr-25 07:33N 29°49' W 090°00'1 1.0
2016-Apr-25 06:33N 29°50' W 089°59'6 5.3
2016-Apr-25 05:28N 29°55' W 089°56'8 8.5
2016-Apr-25 04:33N 29°55' W 090°05'  
2016-Apr-21 23:33N 29°56' W 090°11'4 4.3
2016-Apr-21 22:33N 29°55' W 090°06'5 4.8
2016-Apr-21 21:33N 29°57' W 090°02'4 4.0
2016-Apr-21 20:33N 29°55' W 089°58'3 3.0
2016-Apr-21 19:32N 29°52' W 089°57'5 5.2
2016-Apr-21 18:33N 29°48' W 090°00'  
Track history (hours):
 
Tides and Currents Weather Stations Pressure Air Temp Water Temp Dewpoint Dewpoint Depression Visibility Wind Speed Wind Dir Waves Ship Positions

Susquehanna

Owner: Vane Line Bunkering, Inc., Baltimore, MD. More information available from US FCC via Universal Licensing System and Coast Guard Vessel Documentation Center.

Last reported at 2016-Apr-30 06:10 UTC. Time now 2016-May-01 15:38 UTC.
Position N 27°03' W 079°59'.

Length 28 m; draft 4.2 m.

Type: Tug. MMSI: 367318750.

Date/timePositionNaut miles runAvg speedWind from/ knotsBaromVisibWave heightAir tempDewpointWater temp
2016-Apr-30 06:10N 27°03' W 079°59'711.4
2016-Apr-30 05:33N 26°56' W 079°59'21 9.7
2016-Apr-30 03:23N 26°35' W 079°59'7 8.7
2016-Apr-30 02:33N 26°28' W 079°60'9 8.6
2016-Apr-30 01:33N 26°20' W 080°01'9 8.9
2016-Apr-30 00:33N 26°11' W 080°01'8 8.4
2016-Apr-29 23:33N 26°02' W 080°02'8 8.2
2016-Apr-29 22:33N 25°54' W 080°02'9 9.1
2016-Apr-29 21:33N 25°45' W 080°03'173 3.9
2016-Apr-28 01:13N 27°06' W 082°53'6 7.9
2016-Apr-28 00:24N 27°12' W 082°53'  
2016-Apr-25 11:20N 29°45' W 090°01'4 5.7
2016-Apr-25 10:33N 29°49' W 090°00'0 0.0
2016-Apr-25 09:33N 29°49' W 090°00'0 0.0
2016-Apr-25 08:33N 29°49' W 090°00'0 0.0
2016-Apr-25 07:33N 29°49' W 090°00'1 1.0
2016-Apr-25 06:33N 29°50' W 089°59'6 5.3
2016-Apr-25 05:28N 29°55' W 089°56'8 8.5
2016-Apr-25 04:33N 29°55' W 090°05'  
2016-Apr-21 23:33N 29°56' W 090°11'4 4.3
2016-Apr-21 22:33N 29°55' W 090°06'5 4.8
2016-Apr-21 21:33N 29°57' W 090°02'4 4.0
2016-Apr-21 20:33N 29°55' W 089°58'3 3.0
2016-Apr-21 19:32N 29°52' W 089°57'5 5.2
2016-Apr-21 18:33N 29°48' W 090°00'  

Dump ship's entire track history